sensor_id;sensor_type;location;lat;lon;timestamp;pressure;altitude;pressure_sealevel;temperature;humidity
15050;BME280;7622;42.724;23.250;2022-10-14T00:00:38;94994.81;;;13.86;100.00
15050;BME280;7622;42.724;23.250;2022-10-14T00:03:07;94999.00;;;13.78;100.00
15050;BME280;7622;42.724;23.250;2022-10-14T00:05:39;94988.22;;;13.73;100.00
15050;BME280;7622;42.724;23.250;2022-10-14T00:08:07;94991.31;;;13.77;100.00
15050;BME280;7622;42.724;23.250;2022-10-14T00:10:37;94994.41;;;13.72;100.00
15050;BME280;7622;42.724;23.250;2022-10-14T00:13:06;94990.34;;;13.78;100.00
15050;BME280;7622;42.724;23.250;2022-10-14T00:15:40;94946.34;;;13.57;100.00
15050;BME280;7622;42.724;23.250;2022-10-14T00:18:07;94985.28;;;13.76;100.00
15050;BME280;7622;42.724;23.250;2022-10-14T00:20:34;94985.63;;;13.73;100.00
15050;BME280;7622;42.724;23.250;2022-10-14T00:23:01;94948.25;;;13.47;100.00
15050;BME280;7622;42.724;23.250;2022-10-14T00:25:28;94974.97;;;13.67;100.00
15050;BME280;7622;42.724;23.250;2022-10-14T00:27:55;94977.09;;;13.71;100.00
15050;BME280;7622;42.724;23.250;2022-10-14T00:30:21;94972.22;;;13.68;100.00
15050;BME280;7622;42.724;23.250;2022-10-14T00:32:50;94968.59;;;13.69;100.00
15050;BME280;7622;42.724;23.250;2022-10-14T00:35:16;94978.56;;;13.66;100.00
15050;BME280;7622;42.724;23.250;2022-10-14T00:37:43;94974.91;;;13.59;100.00
15050;BME280;7622;42.724;23.250;2022-10-14T00:40:12;94972.16;;;13.60;100.00
15050;BME280;7622;42.724;23.250;2022-10-14T00:42:38;94962.78;;;13.50;100.00
15050;BME280;7622;42.724;23.250;2022-10-14T00:45:11;94968.81;;;13.50;100.00
15050;BME280;7622;42.724;23.250;2022-10-14T00:47:39;94970.09;;;13.46;100.00
15050;BME280;7622;42.724;23.250;2022-10-14T00:50:08;94977.31;;;13.52;100.00
15050;BME280;7622;42.724;23.250;2022-10-14T00:52:35;94970.41;;;13.43;100.00
15050;BME280;7622;42.724;23.250;2022-10-14T00:55:06;94964.06;;;13.46;100.00
15050;BME280;7622;42.724;23.250;2022-10-14T00:57:34;94960.94;;;13.42;100.00
15050;BME280;7622;42.724;23.250;2022-10-14T01:00:04;94956.31;;;13.36;100.00
15050;BME280;7622;42.724;23.250;2022-10-14T01:02:32;94951.50;;;13.41;100.00
15050;BME280;7622;42.724;23.250;2022-10-14T01:05:02;94950.91;;;13.29;100.00
15050;BME280;7622;42.724;23.250;2022-10-14T01:07:45;94950.91;;;13.29;100.00
15050;BME280;7622;42.724;23.250;2022-10-14T01:10:24;94971.28;;;13.26;100.00
15050;BME280;7622;42.724;23.250;2022-10-14T01:13:03;94963.38;;;13.18;100.00
15050;BME280;7622;42.724;23.250;2022-10-14T01:15:37;94950.63;;;13.15;100.00
15050;BME280;7622;42.724;23.250;2022-10-14T01:18:16;94939.56;;;13.13;100.00
15050;BME280;7622;42.724;23.250;2022-10-14T01:21:06;94927.25;;;13.05;100.00
15050;BME280;7622;42.724;23.250;2022-10-14T01:27:04;94909.53;;;12.91;100.00
15050;BME280;7622;42.724;23.250;2022-10-14T01:30:05;94929.63;;;12.98;100.00
15050;BME280;7622;42.724;23.250;2022-10-14T01:32:40;94921.00;;;12.98;100.00
15050;BME280;7622;42.724;23.250;2022-10-14T01:35:22;94918.25;;;12.99;100.00
15050;BME280;7622;42.724;23.250;2022-10-14T01:37:54;94931.41;;;12.98;100.00
15050;BME280;7622;42.724;23.250;2022-10-14T01:40:26;94928.28;;;12.94;100.00
15050;BME280;7622;42.724;23.250;2022-10-14T01:42:54;94920.84;;;12.99;100.00
15050;BME280;7622;42.724;23.250;2022-10-14T01:45:25;94923.25;;;12.93;100.00
15050;BME280;7622;42.724;23.250;2022-10-14T01:47:53;94926.72;;;13.01;100.00
15050;BME280;7622;42.724;23.250;2022-10-14T01:50:23;94926.50;;;12.95;100.00
15050;BME280;7622;42.724;23.250;2022-10-14T01:52:56;94906.78;;;12.92;100.00
15050;BME280;7622;42.724;23.250;2022-10-14T01:55:26;94927.66;;;13.00;100.00
15050;BME280;7622;42.724;23.250;2022-10-14T01:57:56;94929.91;;;12.95;100.00
15050;BME280;7622;42.724;23.250;2022-10-14T02:00:25;94935.13;;;12.95;100.00
15050;BME280;7622;42.724;23.250;2022-10-14T02:02:52;94926.88;;;12.82;100.00
15050;BME280;7622;42.724;23.250;2022-10-14T02:05:27;94927.91;;;12.89;100.00
15050;BME280;7622;42.724;23.250;2022-10-14T02:07:58;94923.38;;;12.91;100.00
15050;BME280;7622;42.724;23.250;2022-10-14T02:10:41;94921.53;;;12.84;100.00
15050;BME280;7622;42.724;23.250;2022-10-14T02:13:22;94919.00;;;12.74;100.00
15050;BME280;7622;42.724;23.250;2022-10-14T02:16:04;94914.59;;;12.75;100.00
15050;BME280;7622;42.724;23.250;2022-10-14T02:18:37;94918.16;;;12.74;100.00
15050;BME280;7622;42.724;23.250;2022-10-14T02:21:12;94910.59;;;12.62;100.00
15050;BME280;7622;42.724;23.250;2022-10-14T02:23:45;94912.25;;;12.63;100.00
15050;BME280;7622;42.724;23.250;2022-10-14T02:26:16;94907.63;;;12.57;100.00
15050;BME280;7622;42.724;23.250;2022-10-14T02:28:45;94903.88;;;12.60;100.00
15050;BME280;7622;42.724;23.250;2022-10-14T02:31:15;94901.06;;;12.53;100.00
15050;BME280;7622;42.724;23.250;2022-10-14T02:33:48;94908.44;;;12.58;100.00
15050;BME280;7622;42.724;23.250;2022-10-14T02:36:19;94906.50;;;12.60;100.00
15050;BME280;7622;42.724;23.250;2022-10-14T02:38:49;94900.22;;;12.53;100.00
15050;BME280;7622;42.724;23.250;2022-10-14T02:41:18;94902.03;;;12.52;100.00
15050;BME280;7622;42.724;23.250;2022-10-14T02:43:46;94908.94;;;12.61;100.00
15050;BME280;7622;42.724;23.250;2022-10-14T02:46:19;94906.81;;;12.57;100.00
15050;BME280;7622;42.724;23.250;2022-10-14T02:48:46;94883.88;;;12.43;100.00
15050;BME280;7622;42.724;23.250;2022-10-14T02:51:13;94917.16;;;12.49;100.00
15050;BME280;7622;42.724;23.250;2022-10-14T02:53:40;94895.84;;;12.53;100.00
15050;BME280;7622;42.724;23.250;2022-10-14T02:56:07;94900.22;;;12.53;100.00
15050;BME280;7622;42.724;23.250;2022-10-14T02:58:34;94898.53;;;12.44;100.00
15050;BME280;7622;42.724;23.250;2022-10-14T03:01:00;94898.53;;;12.44;100.00
15050;BME280;7622;42.724;23.250;2022-10-14T03:03:28;94900.84;;;12.47;100.00
15050;BME280;7622;42.724;23.250;2022-10-14T03:05:55;94899.38;;;12.44;100.00
15050;BME280;7622;42.724;23.250;2022-10-14T03:08:22;94893.63;;;12.41;100.00
15050;BME280;7622;42.724;23.250;2022-10-14T03:10:48;94894.50;;;12.32;100.00
15050;BME280;7622;42.724;23.250;2022-10-14T03:13:15;94890.84;;;12.24;100.00
15050;BME280;7622;42.724;23.250;2022-10-14T03:15:42;94891.06;;;12.31;100.00
15050;BME280;7622;42.724;23.250;2022-10-14T03:18:09;94877.91;;;12.33;100.00
15050;BME280;7622;42.724;23.250;2022-10-14T03:20:37;94890.66;;;12.36;100.00
15050;BME280;7622;42.724;23.250;2022-10-14T03:23:03;94883.47;;;12.38;100.00
15050;BME280;7622;42.724;23.250;2022-10-14T03:25:30;94892.22;;;12.29;100.00
15050;BME280;7622;42.724;23.250;2022-10-14T03:27:57;94884.31;;;12.20;100.00
15050;BME280;7622;42.724;23.250;2022-10-14T03:30:23;94889.28;;;12.14;100.00
15050;BME280;7622;42.724;23.250;2022-10-14T03:32:50;94899.94;;;12.20;100.00
15050;BME280;7622;42.724;23.250;2022-10-14T03:35:17;94896.38;;;12.21;100.00
15050;BME280;7622;42.724;23.250;2022-10-14T03:37:48;94895.81;;;12.18;100.00
15050;BME280;7622;42.724;23.250;2022-10-14T03:40:19;94894.19;;;12.17;100.00
15050;BME280;7622;42.724;23.250;2022-10-14T03:42:47;94902.59;;;12.11;100.00
15050;BME280;7622;42.724;23.250;2022-10-14T03:45:14;94907.38;;;12.15;100.00
15050;BME280;7622;42.724;23.250;2022-10-14T03:47:41;94900.22;;;12.17;100.00
15050;BME280;7622;42.724;23.250;2022-10-14T03:50:08;94872.00;;;11.95;100.00
15050;BME280;7622;42.724;23.250;2022-10-14T03:52:35;94897.00;;;12.06;100.00
15050;BME280;7622;42.724;23.250;2022-10-14T03:55:03;94896.88;;;12.07;100.00
15050;BME280;7622;42.724;23.250;2022-10-14T03:57:30;94892.63;;;12.06;100.00
15050;BME280;7622;42.724;23.250;2022-10-14T03:59:57;94893.69;;;12.13;100.00
15050;BME280;7622;42.724;23.250;2022-10-14T04:02:24;94895.78;;;12.10;100.00
15050;BME280;7622;42.724;23.250;2022-10-14T04:04:50;94888.75;;;12.10;100.00
15050;BME280;7622;42.724;23.250;2022-10-14T04:07:17;94886.72;;;12.04;100.00
15050;BME280;7622;42.724;23.250;2022-10-14T04:09:44;94883.84;;;12.07;100.00
15050;BME280;7622;42.724;23.250;2022-10-14T04:12:12;94884.53;;;12.09;100.00
15050;BME280;7622;42.724;23.250;2022-10-14T04:14:38;94879.38;;;12.17;100.00
15050;BME280;7622;42.724;23.250;2022-10-14T04:17:05;94877.97;;;12.05;100.00
15050;BME280;7622;42.724;23.250;2022-10-14T04:19:32;94877.59;;;12.00;100.00
15050;BME280;7622;42.724;23.250;2022-10-14T04:21:59;94877.53;;;12.10;100.00
15050;BME280;7622;42.724;23.250;2022-10-14T04:24:25;94875.00;;;12.00;100.00
15050;BME280;7622;42.724;23.250;2022-10-14T04:26:52;94878.88;;;11.96;100.00
15050;BME280;7622;42.724;23.250;2022-10-14T04:29:20;94877.59;;;12.00;100.00
15050;BME280;7622;42.724;23.250;2022-10-14T04:31:47;94875.81;;;12.01;100.00
15050;BME280;7622;42.724;23.250;2022-10-14T04:34:14;94876.91;;;11.98;100.00
15050;BME280;7622;42.724;23.250;2022-10-14T04:36:40;94881.53;;;12.04;100.00
15050;BME280;7622;42.724;23.250;2022-10-14T04:39:07;94870.47;;;12.02;100.00
15050;BME280;7622;42.724;23.250;2022-10-14T04:41:34;94864.94;;;12.05;100.00
15050;BME280;7622;42.724;23.250;2022-10-14T04:44:01;94847.03;;;12.02;100.00
15050;BME280;7622;42.724;23.250;2022-10-14T04:46:29;94848.00;;;12.01;100.00
15050;BME280;7622;42.724;23.250;2022-10-14T04:48:56;94855.13;;;11.99;100.00
15050;BME280;7622;42.724;23.250;2022-10-14T04:51:23;94867.31;;;11.99;100.00
15050;BME280;7622;42.724;23.250;2022-10-14T04:53:50;94858.69;;;11.98;100.00
15050;BME280;7622;42.724;23.250;2022-10-14T04:56:17;94862.94;;;12.17;100.00
15050;BME280;7622;42.724;23.250;2022-10-14T04:58:44;94861.53;;;12.22;100.00
15050;BME280;7622;42.724;23.250;2022-10-14T05:01:10;94859.31;;;12.10;100.00
15050;BME280;7622;42.724;23.250;2022-10-14T05:03:38;94866.00;;;12.12;100.00
15050;BME280;7622;42.724;23.250;2022-10-14T05:06:05;94861.09;;;12.09;100.00
15050;BME280;7622;42.724;23.250;2022-10-14T05:08:32;94854.91;;;12.10;100.00
15050;BME280;7622;42.724;23.250;2022-10-14T05:10:59;94857.50;;;12.10;100.00
15050;BME280;7622;42.724;23.250;2022-10-14T05:13:27;94857.81;;;12.07;100.00
15050;BME280;7622;42.724;23.250;2022-10-14T05:15:54;94854.09;;;12.10;100.00
15050;BME280;7622;42.724;23.250;2022-10-14T05:18:21;94853.88;;;12.21;100.00
15050;BME280;7622;42.724;23.250;2022-10-14T05:20:49;94836.91;;;12.17;100.00
15050;BME280;7622;42.724;23.250;2022-10-14T05:23:16;94850.00;;;12.25;100.00
15050;BME280;7622;42.724;23.250;2022-10-14T05:25:42;94852.78;;;12.23;100.00
15050;BME280;7622;42.724;23.250;2022-10-14T05:28:09;94857.16;;;12.23;100.00
15050;BME280;7622;42.724;23.250;2022-10-14T05:30:36;94850.81;;;12.26;100.00
15050;BME280;7622;42.724;23.250;2022-10-14T05:33:03;94856.13;;;12.16;100.00
15050;BME280;7622;42.724;23.250;2022-10-14T05:35:29;94852.19;;;12.30;100.00
15050;BME280;7622;42.724;23.250;2022-10-14T05:37:57;94864.81;;;12.24;100.00
15050;BME280;7622;42.724;23.250;2022-10-14T05:40:24;94864.75;;;12.34;100.00
15050;BME280;7622;42.724;23.250;2022-10-14T05:42:51;94849.78;;;12.18;100.00
15050;BME280;7622;42.724;23.250;2022-10-14T05:45:18;94867.50;;;12.33;100.00
15050;BME280;7622;42.724;23.250;2022-10-14T05:47:45;94871.88;;;12.32;100.00
15050;BME280;7622;42.724;23.250;2022-10-14T05:50:12;94871.38;;;12.29;100.00
15050;BME280;7622;42.724;23.250;2022-10-14T05:52:39;94875.31;;;12.33;100.00
15050;BME280;7622;42.724;23.250;2022-10-14T05:55:08;94874.28;;;12.43;100.00
15050;BME280;7622;42.724;23.250;2022-10-14T05:57:35;94870.53;;;12.63;100.00
15050;BME280;7622;42.724;23.250;2022-10-14T06:00:04;94881.78;;;12.64;100.00
15050;BME280;7622;42.724;23.250;2022-10-14T06:02:31;94882.22;;;12.42;100.00
15050;BME280;7622;42.724;23.250;2022-10-14T06:04:59;94877.63;;;12.36;100.00
15050;BME280;7622;42.724;23.250;2022-10-14T06:07:26;94879.84;;;12.48;100.00
15050;BME280;7622;42.724;23.250;2022-10-14T06:09:53;94887.28;;;12.61;100.00
15050;BME280;7622;42.724;23.250;2022-10-14T06:12:22;94891.00;;;12.41;100.00
15050;BME280;7622;42.724;23.250;2022-10-14T06:14:50;94887.13;;;12.45;100.00
15050;BME280;7622;42.724;23.250;2022-10-14T06:17:17;94892.06;;;12.48;100.00
15050;BME280;7622;42.724;23.250;2022-10-14T06:19:45;94885.53;;;12.44;100.00
15050;BME280;7622;42.724;23.250;2022-10-14T06:22:12;94896.22;;;12.41;100.00
15050;BME280;7622;42.724;23.250;2022-10-14T06:24:40;94898.16;;;12.56;100.00
15050;BME280;7622;42.724;23.250;2022-10-14T06:27:08;94904.09;;;12.67;100.00
15050;BME280;7622;42.724;23.250;2022-10-14T06:29:38;94901.88;;;12.72;100.00
15050;BME280;7622;42.724;23.250;2022-10-14T06:32:06;94897.09;;;12.67;100.00
15050;BME280;7622;42.724;23.250;2022-10-14T06:34:34;94900.38;;;12.69;100.00
15050;BME280;7622;42.724;23.250;2022-10-14T06:37:02;94899.53;;;12.86;100.00
15050;BME280;7622;42.724;23.250;2022-10-14T06:39:30;94907.59;;;12.93;100.00
15050;BME280;7622;42.724;23.250;2022-10-14T06:41:58;94920.09;;;12.89;100.00
15050;BME280;7622;42.724;23.250;2022-10-14T06:44:25;94904.59;;;12.88;100.00
15050;BME280;7622;42.724;23.250;2022-10-14T06:46:55;94906.03;;;12.82;100.00
15050;BME280;7622;42.724;23.250;2022-10-14T06:49:22;94915.13;;;12.78;100.00
15050;BME280;7622;42.724;23.250;2022-10-14T06:51:50;94907.59;;;12.93;100.00
15050;BME280;7622;42.724;23.250;2022-10-14T06:54:17;94899.91;;;12.91;100.00
15050;BME280;7622;42.724;23.250;2022-10-14T06:56:45;94907.34;;;12.86;100.00
15050;BME280;7622;42.724;23.250;2022-10-14T06:59:13;94899.19;;;12.81;100.00
15050;BME280;7622;42.724;23.250;2022-10-14T07:01:41;94897.81;;;13.13;100.00
15050;BME280;7622;42.724;23.250;2022-10-14T07:04:10;94882.19;;;13.13;100.00
15050;BME280;7622;42.724;23.250;2022-10-14T07:06:38;94906.19;;;13.24;100.00
15050;BME280;7622;42.724;23.250;2022-10-14T07:09:06;94910.66;;;13.32;100.00
15050;BME280;7622;42.724;23.250;2022-10-14T07:11:34;94896.88;;;13.22;100.00
15050;BME280;7622;42.724;23.250;2022-10-14T07:14:02;94901.91;;;13.41;100.00
15050;BME280;7622;42.724;23.250;2022-10-14T07:16:30;94902.09;;;13.48;100.00
15050;BME280;7622;42.724;23.250;2022-10-14T07:18:58;94894.91;;;13.50;100.00
15050;BME280;7622;42.724;23.250;2022-10-14T07:21:28;94879.41;;;13.40;100.00
15050;BME280;7622;42.724;23.250;2022-10-14T07:23:56;94900.38;;;13.64;100.00
15050;BME280;7622;42.724;23.250;2022-10-14T07:26:24;94905.41;;;13.92;100.00
15050;BME280;7622;42.724;23.250;2022-10-14T07:28:52;94896.38;;;13.78;100.00
15050;BME280;7622;42.724;23.250;2022-10-14T07:31:21;94818.94;;;13.19;100.00
15050;BME280;7622;42.724;23.250;2022-10-14T07:33:53;94896.91;;;13.90;100.00
15050;BME280;7622;42.724;23.250;2022-10-14T07:36:24;94886.03;;;14.02;100.00
15050;BME280;7622;42.724;23.250;2022-10-14T07:38:56;94892.00;;;13.87;100.00
15050;BME280;7622;42.724;23.250;2022-10-14T07:41:27;94879.28;;;13.92;100.00
15050;BME280;7622;42.724;23.250;2022-10-14T07:43:57;94892.44;;;14.16;100.00
15050;BME280;7622;42.724;23.250;2022-10-14T07:46:28;94893.34;;;13.99;100.00
15050;BME280;7622;42.724;23.250;2022-10-14T07:48:58;94874.88;;;13.92;100.00
15050;BME280;7622;42.724;23.250;2022-10-14T07:51:27;94889.44;;;14.11;100.00
15050;BME280;7622;42.724;23.250;2022-10-14T07:53:58;94889.66;;;14.26;100.00
15050;BME280;7622;42.724;23.250;2022-10-14T07:56:30;94879.56;;;14.31;100.00
15050;BME280;7622;42.724;23.250;2022-10-14T07:58:59;94877.78;;;14.39;100.00
15050;BME280;7622;42.724;23.250;2022-10-14T08:01:28;94893.81;;;14.52;100.00
15050;BME280;7622;42.724;23.250;2022-10-14T08:03:56;94893.59;;;14.30;100.00
15050;BME280;7622;42.724;23.250;2022-10-14T08:06:24;94889.22;;;14.46;100.00
15050;BME280;7622;42.724;23.250;2022-10-14T08:08:53;94895.13;;;14.40;100.00
15050;BME280;7622;42.724;23.250;2022-10-14T08:11:26;94899.22;;;14.43;100.00
15050;BME280;7622;42.724;23.250;2022-10-14T08:13:57;94890.50;;;14.34;100.00
15050;BME280;7622;42.724;23.250;2022-10-14T08:16:27;94894.16;;;14.49;100.00
15050;BME280;7622;42.724;23.250;2022-10-14T08:18:59;94893.66;;;14.46;100.00
15050;BME280;7622;42.724;23.250;2022-10-14T08:21:33;94895.28;;;14.55;100.00
15050;BME280;7622;42.724;23.250;2022-10-14T08:24:01;94894.47;;;14.46;100.00
15050;BME280;7622;42.724;23.250;2022-10-14T08:26:35;94899.59;;;14.14;100.00
15050;BME280;7622;42.724;23.250;2022-10-14T08:29:06;94906.75;;;14.12;100.00
15050;BME280;7622;42.724;23.250;2022-10-14T08:31:35;94888.38;;;14.30;100.00
15050;BME280;7622;42.724;23.250;2022-10-14T08:34:03;94911.53;;;14.16;100.00
15050;BME280;7622;42.724;23.250;2022-10-14T08:36:36;94891.28;;;14.18;100.00
15050;BME280;7622;42.724;23.250;2022-10-14T08:39:08;94902.63;;;14.43;100.00
15050;BME280;7622;42.724;23.250;2022-10-14T08:44:46;94895.16;;;14.56;100.00
15050;BME280;7622;42.724;23.250;2022-10-14T08:47:20;94895.50;;;14.86;100.00
15050;BME280;7622;42.724;23.250;2022-10-14T08:49:59;94897.44;;;15.00;100.00
15050;BME280;7622;42.724;23.250;2022-10-14T08:52:33;94901.72;;;14.93;100.00
15050;BME280;7622;42.724;23.250;2022-10-14T08:55:17;94908.88;;;14.75;100.00
15050;BME280;7622;42.724;23.250;2022-10-14T08:57:52;94892.88;;;14.78;100.00
15050;BME280;7622;42.724;23.250;2022-10-14T09:00:23;94886.97;;;14.51;100.00
15050;BME280;7622;42.724;23.250;2022-10-14T09:02:51;94898.41;;;14.75;100.00
15050;BME280;7622;42.724;23.250;2022-10-14T09:05:21;94900.22;;;14.82;100.00
15050;BME280;7622;42.724;23.250;2022-10-14T09:07:54;94870.63;;;14.74;100.00
15050;BME280;7622;42.724;23.250;2022-10-14T09:10:28;94883.03;;;15.12;100.00
15050;BME280;7622;42.724;23.250;2022-10-14T09:13:03;94889.19;;;15.35;100.00
15050;BME280;7622;42.724;23.250;2022-10-14T09:15:39;94890.53;;;15.56;100.00
15050;BME280;7622;42.724;23.250;2022-10-14T09:18:23;94886.56;;;15.44;100.00
15050;BME280;7622;42.724;23.250;2022-10-14T09:20:53;94878.34;;;15.63;100.00
15050;BME280;7622;42.724;23.250;2022-10-14T09:23:25;94885.59;;;15.61;100.00
15050;BME280;7622;42.724;23.250;2022-10-14T09:25:58;94875.34;;;15.90;100.00
15050;BME280;7622;42.724;23.250;2022-10-14T09:28:33;94873.41;;;16.15;100.00
15050;BME280;7622;42.724;23.250;2022-10-14T09:31:11;94883.91;;;15.76;100.00
15050;BME280;7622;42.724;23.250;2022-10-14T09:33:40;94881.78;;;16.10;100.00
15050;BME280;7622;42.724;23.250;2022-10-14T09:36:18;94878.56;;;16.54;100.00
15050;BME280;7622;42.724;23.250;2022-10-14T09:38:47;94845.59;;;16.37;100.00
15050;BME280;7622;42.724;23.250;2022-10-14T09:41:24;94875.31;;;16.52;100.00
15050;BME280;7622;42.724;23.250;2022-10-14T09:44:19;94863.09;;;16.67;99.31
15050;BME280;7622;42.724;23.250;2022-10-14T09:46:52;94869.31;;;16.43;96.07
15050;BME280;7622;42.724;23.250;2022-10-14T09:49:32;94876.75;;;16.32;98.66
15050;BME280;7622;42.724;23.250;2022-10-14T09:52:04;94871.06;;;16.51;98.52
15050;BME280;7622;42.724;23.250;2022-10-14T09:54:33;94878.97;;;16.43;98.99
15050;BME280;7622;42.724;23.250;2022-10-14T09:57:06;94880.44;;;16.45;98.99
15050;BME280;7622;42.724;23.250;2022-10-14T09:59:49;94877.28;;;16.50;100.00
15050;BME280;7622;42.724;23.250;2022-10-14T10:02:25;94855.56;;;16.87;99.14
15050;BME280;7622;42.724;23.250;2022-10-14T10:05:11;94867.00;;;16.71;100.00
15050;BME280;7622;42.724;23.250;2022-10-14T10:07:40;94847.47;;;16.51;100.00
15050;BME280;7622;42.724;23.250;2022-10-14T10:10:21;94868.75;;;16.79;100.00
15050;BME280;7622;42.724;23.250;2022-10-14T10:12:59;94868.06;;;16.62;100.00
15050;BME280;7622;42.724;23.250;2022-10-14T10:15:31;94879.22;;;16.56;100.00
15050;BME280;7622;42.724;23.250;2022-10-14T10:18:17;94873.25;;;16.70;100.00
15050;BME280;7622;42.724;23.250;2022-10-14T10:21:02;94868.28;;;16.52;100.00
15050;BME280;7622;42.724;23.250;2022-10-14T10:23:34;94859.63;;;16.44;100.00
15050;BME280;7622;42.724;23.250;2022-10-14T10:26:24;94852.19;;;16.78;100.00
15050;BME280;7622;42.724;23.250;2022-10-14T10:28:57;94841.97;;;16.83;100.00
15050;BME280;7622;42.724;23.250;2022-10-14T10:35:15;94854.59;;;17.03;99.89
15050;BME280;7622;42.724;23.250;2022-10-14T10:37:57;94833.00;;;17.01;100.00
15050;BME280;7622;42.724;23.250;2022-10-14T10:40:34;94824.53;;;16.90;100.00
15050;BME280;7622;42.724;23.250;2022-10-14T10:46:11;94841.78;;;17.37;85.81
15050;BME280;7622;42.724;23.250;2022-10-14T10:48:44;94830.47;;;17.51;84.75
15050;BME280;7622;42.724;23.250;2022-10-14T10:51:19;94821.84;;;17.57;80.16
15050;BME280;7622;42.724;23.250;2022-10-14T10:54:02;94816.88;;;17.92;77.89
15050;BME280;7622;42.724;23.250;2022-10-14T10:56:39;94836.91;;;17.93;74.31
15050;BME280;7622;42.724;23.250;2022-10-14T10:59:29;94825.06;;;17.67;74.48
15050;BME280;7622;42.724;23.250;2022-10-14T11:02:22;94817.75;;;17.99;75.31
15050;BME280;7622;42.724;23.250;2022-10-14T11:04:55;94822.03;;;18.00;72.46
15050;BME280;7622;42.724;23.250;2022-10-14T11:07:35;94803.63;;;18.00;67.97
15050;BME280;7622;42.724;23.250;2022-10-14T11:10:23;94803.19;;;17.96;58.57
15050;BME280;7622;42.724;23.250;2022-10-14T11:13:20;94806.25;;;18.00;57.61
15050;BME280;7622;42.724;23.250;2022-10-14T11:15:51;94784.78;;;17.96;57.34
15050;BME280;7622;42.724;23.250;2022-10-14T11:18:29;94810.34;;;18.02;53.28
15050;BME280;7622;42.724;23.250;2022-10-14T11:21:07;94793.78;;;18.23;54.71
15050;BME280;7622;42.724;23.250;2022-10-14T11:23:53;94785.22;;;18.57;54.94
15050;BME280;7622;42.724;23.250;2022-10-14T11:26:53;94792.28;;;18.57;55.19
15050;BME280;7622;42.724;23.250;2022-10-14T11:29:36;94792.38;;;18.48;55.03
15050;BME280;7622;42.724;23.250;2022-10-14T11:32:11;94779.44;;;18.04;56.22
15050;BME280;7622;42.724;23.250;2022-10-14T11:34:48;94788.38;;;18.10;56.32
15050;BME280;7622;42.724;23.250;2022-10-14T11:37:28;94785.50;;;18.47;54.86
15050;BME280;7622;42.724;23.250;2022-10-14T11:40:00;94734.22;;;18.16;54.05
15050;BME280;7622;42.724;23.250;2022-10-14T11:42:41;94770.97;;;18.52;53.36
15050;BME280;7622;42.724;23.250;2022-10-14T11:45:29;94774.66;;;18.15;53.03
15050;BME280;7622;42.724;23.250;2022-10-14T11:55:00;94779.22;;;17.55;57.22
15050;BME280;7622;42.724;23.250;2022-10-14T11:57:32;94779.94;;;17.64;55.59
15050;BME280;7622;42.724;23.250;2022-10-14T12:02:52;94775.31;;;17.22;51.29
15050;BME280;7622;42.724;23.250;2022-10-14T12:05:22;94751.72;;;17.07;50.44
15050;BME280;7622;42.724;23.250;2022-10-14T12:08:01;94763.19;;;17.36;51.03
15050;BME280;7622;42.724;23.250;2022-10-14T12:10:34;94766.44;;;17.52;51.68
15050;BME280;7622;42.724;23.250;2022-10-14T12:13:04;94759.13;;;17.62;51.32
15050;BME280;7622;42.724;23.250;2022-10-14T12:15:35;94761.94;;;17.61;51.88
15050;BME280;7622;42.724;23.250;2022-10-14T12:18:04;94767.00;;;17.33;53.71
15050;BME280;7622;42.724;23.250;2022-10-14T12:20:36;94769.91;;;17.23;53.71
15050;BME280;7622;42.724;23.250;2022-10-14T12:23:07;94774.03;;;16.88;53.72
15050;BME280;7622;42.724;23.250;2022-10-14T12:25:46;94778.19;;;16.83;53.08
15050;BME280;7622;42.724;23.250;2022-10-14T12:28:18;94774.81;;;16.74;51.64
15050;BME280;7622;42.724;23.250;2022-10-14T12:30:46;94780.91;;;16.89;52.17
15050;BME280;7622;42.724;23.250;2022-10-14T12:33:14;94768.81;;;17.03;54.13
15050;BME280;7622;42.724;23.250;2022-10-14T12:35:53;94765.44;;;17.09;55.44
15050;BME280;7622;42.724;23.250;2022-10-14T12:38:25;94772.00;;;17.13;54.57
15050;BME280;7622;42.724;23.250;2022-10-14T12:40:53;94771.75;;;16.71;55.60
15050;BME280;7622;42.724;23.250;2022-10-14T12:43:23;94767.66;;;16.68;57.16
15050;BME280;7622;42.724;23.250;2022-10-14T12:46:00;94772.88;;;16.91;60.05
15050;BME280;7622;42.724;23.250;2022-10-14T12:48:31;94772.84;;;16.76;66.30
15050;BME280;7622;42.724;23.250;2022-10-14T12:51:08;94784.06;;;16.70;68.71
15050;BME280;7622;42.724;23.250;2022-10-14T12:53:38;94769.47;;;16.68;68.18
15050;BME280;7622;42.724;23.250;2022-10-14T12:56:08;94771.84;;;16.77;68.17
15050;BME280;7622;42.724;23.250;2022-10-14T12:58:39;94770.41;;;16.89;67.93
15050;BME280;7622;42.724;23.250;2022-10-14T13:01:17;94766.34;;;16.72;70.10
15050;BME280;7622;42.724;23.250;2022-10-14T13:03:51;94757.41;;;16.59;73.54
15050;BME280;7622;42.724;23.250;2022-10-14T13:06:41;94758.97;;;16.68;73.94
15050;BME280;7622;42.724;23.250;2022-10-14T13:09:38;94763.28;;;16.83;72.24
15050;BME280;7622;42.724;23.250;2022-10-14T13:12:39;94766.69;;;16.69;71.80
15050;BME280;7622;42.724;23.250;2022-10-14T13:18:41;94762.91;;;16.49;76.11
15050;BME280;7622;42.724;23.250;2022-10-14T13:21:25;94757.38;;;16.44;75.15
15050;BME280;7622;42.724;23.250;2022-10-14T13:23:53;94766.88;;;16.22;77.21
15050;BME280;7622;42.724;23.250;2022-10-14T13:26:24;94763.09;;;16.25;75.46
15050;BME280;7622;42.724;23.250;2022-10-14T13:29:04;94771.13;;;16.23;76.01
15050;BME280;7622;42.724;23.250;2022-10-14T13:31:39;94759.72;;;16.16;77.48
15050;BME280;7622;42.724;23.250;2022-10-14T13:34:18;94761.28;;;16.02;78.91
15050;BME280;7622;42.724;23.250;2022-10-14T13:36:57;94762.31;;;15.93;78.79
15050;BME280;7622;42.724;23.250;2022-10-14T13:39:26;94768.84;;;15.97;78.95
15050;BME280;7622;42.724;23.250;2022-10-14T13:41:55;94762.56;;;16.06;76.77